VLVT Airport Information

Runway Information
Runway 13 Length 9843 ft width 148 ft
Elevation 563 ft Threshold 0 ft Heading 135
Runway 31 Length 9843 ft Width 148 ft
Elevation 563 ft Threshold 0 ft Heading 315
Airport Frequencies
Type APP Name VIENTIANE Frequency 119.7 MHZ
Type TWR Name VIENTIANE Frequency 118.1 MHZ
Airport Navaids
Type NDB Name Vientiane Frequency 205 KHZ
Type NDB Name Thangone Frequency 405 KHZ
Type VOR-DME Name Vientiane Frequency 117500 KHZ
Type NDB Name Wattay Frequency 389 KHZ
Airport Weather Information & NOTAM
ADDS - METARS form results

(0924 UTC 22 February 2020)
Data provider http://aviationweather.gov/metar/data/
 
METAR text: VLVT 220900Z 12006KT 9999 FEW020 31/12 Q1017 NOSIG
Conditions at: VLVT (VIENTIANE/WATTAY, LA) observed 0900 UTC 22 February 2020
Temperature: 31.0°C (88°F)
Dewpoint: 12.0°C (54°F) [RH = 31%]
Pressure (altimeter): 30.03 inches Hg (1017.0 mb)
Winds: from the ESE (120 degrees) at 7 MPH (6 knots; 3.1 m/s)
Visibility: 6 or more miles (10+ km)
Ceiling: at least 12,000 feet AGL
Clouds: few clouds at 2000 feet AGL
Weather: no significant weather observed at this time

METAR text: VLVT 220830Z 14006KT 9999 SCT020 30/12 Q1017 NOSIG
Conditions at: VLVT (VIENTIANE/WATTAY, LA) observed 0830 UTC 22 February 2020
Temperature: 30.0°C (86°F)
Dewpoint: 12.0°C (54°F) [RH = 33%]
Pressure (altimeter): 30.03 inches Hg (1017.0 mb)
Winds: from the SE (140 degrees) at 7 MPH (6 knots; 3.1 m/s)
Visibility: 6 or more miles (10+ km)
Ceiling: at least 12,000 feet AGL
Clouds: scattered clouds at 2000 feet AGL
Weather: no significant weather observed at this time

Forecast for: VLVT (VIENTIANE/WATTAY, LA)
Text: TAF VLVT 220500Z 2206/2306 06006KT 8000 FEW020 FEW200
Forecast period: 0600 UTC 22 February 2020 to 0600 UTC 23 February 2020
Forecast type: FROM: standard forecast or significant change
Winds: from the ENE (60 degrees) at 7 MPH (6 knots; 3.1 m/s)
Visibility: 5 miles (8 km)
Ceiling: at least 12,000 feet AGL
Clouds: few clouds at 2000 feet AGL
few clouds at 20000 feet AGL
Weather: no significant weather forecast for this period